Kure Beach, NC

6:14 AM EST on March 05, 2015 (GMT -0500)
Grand Strand | Change Station
CLOSE
Current Station
Airport
Location: North Myrtle Beach,
Elevation: 33 ft
Nearby Weather Stations
Active Advisory: Dense Fog Advisory

Elev 33 ft 33.81 °N, 78.72 °W | Updated 21 minutes ago

Mostly Cloudy
Mostly Cloudy
54 °F
Feels Like 54 °F
N
14
Wind Variable Wind from SW

Today
High -- | Low -- °F
--% Chance of Precip.
Yesterday
High -- | Low -- °F
Precip. -- in
6:35 AM 6:11 PM
Full, 100% visible
Pressure 29.98 in
Visibility 0.2 miles
Clouds
Dew Point 53 °F
Humidity 97%
Rainfall 0.00 in
Snow Depth Not available.
UV Not available.
Pollen 8.20 out of 12
Air Quality Not available.
Flu Activity Not available.
METAR KCRE 051053Z AUTO 22012KT 1/4SM FG VV002 12/12 A2998 RMK AO1 SLP152 T01220117

More Conditions Fewer Conditions

Pressure 29.98 in
Visibility 0.2 miles
Clouds
Dew Point 53 °F
Humidity 97%
Rainfall 0.00 in
Snow Depth Not available.
UV Not available.
Pollen 8.20 out of 12
Air Quality Not available.
Flu Activity Not available.
METAR KCRE 051053Z AUTO 22012KT 1/4SM FG VV002 12/12 A2998 RMK AO1 SLP152 T01220117

More Conditions Fewer Conditions

10-Day Weather Forecast

Almanac

Astronomy

Mar. 05, 2015 Rise Set
Actual Time
Civil Twilight
Nautical Twilight
Astronomical Twilight
Moon
Length of Visible Light
Length of Day
Tomorrow will be .
, % of the Moon is Illuminated

Today's Extremes

State Highs State Lows

Community

WunderPhotos

Upload Photos

1,802,714 photos uploaded!

WunderBlogs® & News

Nearby

Air Quality

  Air Quality AQ Index Pollutant
Not available.

Snow Depth

Station Depth Elevation

Earthquake Activity

City Distance Mag. Time & Date
Minimum magnitude displayed is 2.5.

Coastal Water Temperatures

Place Temperature

Nearby Weather Stations

Dense Fog Advisory
Statement as of 3:34 AM EST on March 05, 2015

... Dense fog advisory now in effect until 10 am EST this
morning...

* timing... through late morning.

* Visibility... one quarter mile or less at times.

* Impacts... hazardous travel conditions.

Precautionary/preparedness actions...

Visibilities will frequently be reduced to less than one quarter
mile. If driving... slow down... use your low beam headlights... and
leave plenty of distance ahead of you.